Time;durP1;ratioP1;P1;durP2;ratioP2;P2;SDS_P1;SDS_P2;PMS_P1;PMS_P2;Temp;Humidity;BMP_temperature;BMP_pressure;BME280_temperature;BME280_humidity;BME280_pressure;Samples;Min_cycle;Max_cycle;Signal;HPM_P1;HPM_P2
2021/09/09 14:05:39;;;;;;;8.93;4.95;;;;;;;;;;1057601;27;99991;-73
2021/09/09 14:06:10;;;;;;;10.48;5.25;;;;;;;;;;1045912;27;100151;-76
2021/09/09 14:06:40;;;;;;;7.47;4.43;;;;;;;;;;1040992;27;100028;-73
2021/09/09 14:07:11;;;;;;;9.80;5.13;;;;;;;;;;1039434;27;100188;-74
2021/09/09 14:07:43;;;;;;;8.43;5.05;;;;;;;;;;1042645;27;99654;-74
2021/09/09 14:08:14;;;;;;;10.77;5.22;;;;;;;;;;1049082;27;101408;-74
2021/09/09 14:08:45;;;;;;;11.60;5.20;;;;;;;;;;1047028;27;100059;-74
2021/09/09 14:09:16;;;;;;;10.00;4.97;;;;;;;;;;1048288;27;101497;-74
2021/09/09 14:09:47;;;;;;;9.60;5.00;;;;;;;;;;1047794;27;100085;-74
2021/09/09 14:10:18;;;;;;;10.70;4.90;;;;;;;;;;1042655;27;103885;-74
2021/09/09 14:10:49;;;;;;;8.48;4.80;;;;;;;;;;1045504;27;100120;-74
2021/09/09 14:11:20;;;;;;;8.40;4.93;;;;;;;;;;1045463;27;100366;-75
2021/09/09 14:11:51;;;;;;;8.18;4.93;;;;;;;;;;1046730;27;100075;-75
2021/09/09 14:12:22;;;;;;;9.45;4.88;;;;;;;;;;1044759;27;101251;-76
2021/09/09 14:12:54;;;;;;;6.60;4.40;;;;;;;;;;1044974;27;100664;-74
2021/09/09 14:13:25;;;;;;;9.05;4.72;;;;;;;;;;1046036;27;101513;-75
2021/09/09 14:13:56;;;;;;;7.85;4.70;;;;;;;;;;1049506;27;99976;-77
2021/09/09 14:14:26;;;;;;;7.53;4.15;;;;;;;;;;1048342;27;100661;-73
2021/09/09 14:14:57;;;;;;;6.20;4.30;;;;;;;;;;1050718;27;100083;-74
2021/09/09 14:15:28;;;;;;;8.82;4.55;;;;;;;;;;1048878;27;100249;-76
2021/09/09 14:15:59;;;;;;;10.05;4.68;;;;;;;;;;1051151;27;100075;-75
2021/09/09 14:16:30;;;;;;;11.07;4.47;;;;;;;;;;1050088;27;100263;-73
2021/09/09 14:17:01;;;;;;;11.25;4.70;;;;;;;;;;1050948;27;100164;-74
2021/09/09 14:17:32;;;;;;;9.73;4.68;;;;;;;;;;1050055;27;100241;-75
2021/09/09 14:18:03;;;;;;;9.93;4.45;;;;;;;;;;1047160;27;99980;-75
2021/09/09 14:18:34;;;;;;;7.45;4.50;;;;;;;;;;1049882;27;100142;-74
2021/09/09 14:19:05;;;;;;;8.18;4.85;;;;;;;;;;1051591;27;100076;-74
2021/09/09 14:19:35;;;;;;;7.65;4.53;;;;;;;;;;1043224;27;101486;-75
2021/09/09 14:20:08;;;;;;;8.18;4.50;;;;;;;;;;1046009;27;100955;-75
2021/09/09 14:20:40;;;;;;;7.82;4.40;;;;;;;;;;1046860;27;100780;-74
2021/09/09 14:21:11;;;;;;;6.50;4.85;;;;;;;;;;1047073;27;100092;-75
2021/09/09 14:21:42;;;;;;;8.07;4.28;;;;;;;;;;1045251;27;100154;-76
2021/09/09 14:22:13;;;;;;;6.40;3.83;;;;;;;;;;1044595;27;100081;-76
2021/09/09 14:22:45;;;;;;;7.95;4.70;;;;;;;;;;1044798;27;100134;-76
2021/09/09 14:23:16;;;;;;;6.97;4.25;;;;;;;;;;1049782;27;100010;-74
2021/09/09 14:23:46;;;;;;;5.93;4.28;;;;;;;;;;1044439;27;100900;-75
2021/09/09 14:24:17;;;;;;;5.93;3.72;;;;;;;;;;1048812;27;100045;-76
2021/09/09 14:24:48;;;;;;;7.40;4.05;;;;;;;;;;1044152;27;100861;-75
2021/09/09 14:25:19;;;;;;;6.60;4.20;;;;;;;;;;1042593;27;100159;-74
2021/09/09 14:25:50;;;;;;;7.55;4.00;;;;;;;;;;1044817;27;100380;-76
2021/09/09 14:26:21;;;;;;;8.75;4.20;;;;;;;;;;1045428;27;100050;-74
2021/09/09 14:26:51;;;;;;;5.03;3.92;;;;;;;;;;1047821;27;100494;-74
2021/09/09 14:27:23;;;;;;;11.00;4.60;;;;;;;;;;1046068;27;100149;-73
2021/09/09 14:27:54;;;;;;;5.60;4.15;;;;;;;;;;1045212;27;100511;-76
2021/09/09 14:28:24;;;;;;;7.57;4.43;;;;;;;;;;1045538;27;100125;-75
2021/09/09 14:28:56;;;;;;;9.98;4.10;;;;;;;;;;1047774;27;100377;-75
2021/09/09 14:29:27;;;;;;;6.68;4.25;;;;;;;;;;1049438;27;100676;-73
2021/09/09 14:29:58;;;;;;;5.90;3.90;;;;;;;;;;1049370;27;100217;-75
2021/09/09 14:30:29;;;;;;;7.43;4.18;;;;;;;;;;1042014;27;100071;-75
2021/09/09 14:31:00;;;;;;;6.05;3.90;;;;;;;;;;1039437;27;100123;-74
2021/09/09 14:31:31;;;;;;;7.13;3.75;;;;;;;;;;1040946;27;100143;-73
2021/09/09 14:32:02;;;;;;;6.90;4.45;;;;;;;;;;1036990;27;101370;-74
2021/09/09 14:32:33;;;;;;;5.15;3.53;;;;;;;;;;1049096;27;100208;-75
2021/09/09 14:33:05;;;;;;;5.93;4.03;;;;;;;;;;1043819;27;102226;-76
2021/09/09 14:33:35;;;;;;;5.22;3.70;;;;;;;;;;1050809;27;100024;-73
2021/09/09 14:34:06;;;;;;;5.72;3.80;;;;;;;;;;1043629;27;100692;-73
2021/09/09 14:34:37;;;;;;;6.72;3.90;;;;;;;;;;1041503;27;99995;-76
2021/09/09 14:35:09;;;;;;;6.00;3.85;;;;;;;;;;1044927;27;101487;-76
2021/09/09 14:35:39;;;;;;;5.57;3.78;;;;;;;;;;1042957;27;100206;-79
2021/09/09 14:36:10;;;;;;;4.75;3.40;;;;;;;;;;1032580;28;101532;-73
2021/09/09 14:36:41;;;;;;;6.28;4.10;;;;;;;;;;1038736;28;100101;-73
2021/09/09 14:37:12;;;;;;;6.28;3.80;;;;;;;;;;1036738;27;100189;-72
2021/09/09 14:37:44;;;;;;;6.28;3.90;;;;;;;;;;1039671;27;100128;-73
2021/09/09 14:38:14;;;;;;;5.13;3.95;;;;;;;;;;1039426;27;103467;-70
2021/09/09 14:38:45;;;;;;;5.13;3.80;;;;;;;;;;1038541;28;99912;-74
2021/09/09 14:39:16;;;;;;;6.10;4.32;;;;;;;;;;1037261;27;100127;-73
2021/09/09 14:39:47;;;;;;;6.30;4.28;;;;;;;;;;1042867;27;100240;-73
2021/09/09 14:40:18;;;;;;;5.28;4.25;;;;;;;;;;1049237;27;100203;-74
2021/09/09 14:40:49;;;;;;;6.28;4.25;;;;;;;;;;1050984;27;100140;-73
2021/09/09 14:41:20;;;;;;;5.07;4.00;;;;;;;;;;1049625;27;101373;-73
2021/09/09 14:41:50;;;;;;;5.70;3.97;;;;;;;;;;1050271;27;100107;-72
2021/09/09 14:42:21;;;;;;;6.25;4.20;;;;;;;;;;1049875;27;101288;-73
2021/09/09 14:42:55;;;;;;;4.75;3.75;;;;;;;;;;1050227;27;100066;-73
2021/09/09 14:43:26;;;;;;;5.18;4.10;;;;;;;;;;1049843;27;100112;-74
2021/09/09 14:43:57;;;;;;;6.72;4.55;;;;;;;;;;1050456;27;99870;-73
2021/09/09 14:44:27;;;;;;;6.22;4.45;;;;;;;;;;1045259;27;101328;-76
2021/09/09 14:44:58;;;;;;;6.53;4.43;;;;;;;;;;1046602;27;100067;-75
2021/09/09 14:45:29;;;;;;;5.68;4.68;;;;;;;;;;1045116;27;100199;-72
2021/09/09 14:46:00;;;;;;;4.30;3.88;;;;;;;;;;1047105;27;99611;-74
2021/09/09 14:46:31;;;;;;;6.30;3.88;;;;;;;;;;1049546;27;100234;-71
2021/09/09 14:47:03;;;;;;;5.82;4.15;;;;;;;;;;1039098;27;100224;-75
2021/09/09 14:47:34;;;;;;;6.57;4.07;;;;;;;;;;1042195;27;100360;-74
2021/09/09 14:48:05;;;;;;;5.22;4.25;;;;;;;;;;1046648;27;100122;-74
2021/09/09 14:48:36;;;;;;;6.18;4.32;;;;;;;;;;1041956;27;100581;-72
2021/09/09 14:49:07;;;;;;;5.10;4.40;;;;;;;;;;1046611;27;100570;-71
2021/09/09 14:49:38;;;;;;;5.53;4.32;;;;;;;;;;1044178;27;101870;-76
2021/09/09 14:50:09;;;;;;;6.07;4.65;;;;;;;;;;1047255;27;99995;-74
2021/09/09 14:50:40;;;;;;;5.63;4.10;;;;;;;;;;1049175;27;101875;-73
2021/09/09 14:51:11;;;;;;;5.22;4.10;;;;;;;;;;1049985;27;100069;-74
2021/09/09 14:51:42;;;;;;;5.30;4.78;;;;;;;;;;1048792;27;100969;-73
2021/09/09 14:52:13;;;;;;;7.10;4.18;;;;;;;;;;1051467;27;99835;-78
2021/09/09 14:52:45;;;;;;;6.07;4.18;;;;;;;;;;1049847;27;101520;-74
2021/09/09 14:53:16;;;;;;;6.25;4.28;;;;;;;;;;1047837;27;100208;-73
2021/09/09 14:53:47;;;;;;;6.32;4.30;;;;;;;;;;1048894;27;100640;-75
2021/09/09 14:54:18;;;;;;;7.50;4.63;;;;;;;;;;1050467;27;100044;-73
2021/09/09 14:54:49;;;;;;;8.35;4.75;;;;;;;;;;1048349;27;100153;-72
2021/09/09 14:55:20;;;;;;;6.38;4.57;;;;;;;;;;1048420;27;100115;-72
2021/09/09 14:55:50;;;;;;;5.72;4.32;;;;;;;;;;1047102;27;100575;-73
2021/09/09 14:56:21;;;;;;;9.68;5.10;;;;;;;;;;1035699;28;100363;-73
2021/09/09 14:56:52;;;;;;;8.75;5.47;;;;;;;;;;1034786;28;101079;-72
2021/09/09 14:57:23;;;;;;;8.02;5.30;;;;;;;;;;1031588;28;100183;-73
2021/09/09 14:57:54;;;;;;;11.38;4.85;;;;;;;;;;1026765;28;101478;-72
2021/09/09 14:58:25;;;;;;;7.55;4.95;;;;;;;;;;1039524;27;100042;-73
2021/09/09 14:58:55;;;;;;;7.90;4.57;;;;;;;;;;1038507;27;101383;-70
2021/09/09 14:59:26;;;;;;;9.00;5.10;;;;;;;;;;1035729;27;100221;-72
2021/09/09 14:59:57;;;;;;;6.07;4.40;;;;;;;;;;1038023;27;101686;-70
2021/09/09 15:00:28;;;;;;;5.75;4.53;;;;;;;;;;1035609;28;100279;-71
2021/09/09 15:00:59;;;;;;;7.90;4.82;;;;;;;;;;1030463;28;103471;-74
2021/09/09 15:01:30;;;;;;;7.22;4.68;;;;;;;;;;1039456;27;100077;-74
2021/09/09 15:02:01;;;;;;;11.70;4.57;;;;;;;;;;1043143;27;100093;-73
2021/09/09 15:02:32;;;;;;;6.10;4.25;;;;;;;;;;1048279;27;99997;-72
2021/09/09 15:03:09;;;;;;;6.13;4.80;;;;;;;;;;1046728;27;101180;-71
2021/09/09 15:03:41;;;;;;;6.93;4.78;;;;;;;;;;1039462;28;100212;-73
2021/09/09 15:04:12;;;;;;;6.93;4.50;;;;;;;;;;1029651;28;101709;-72
2021/09/09 15:04:43;;;;;;;4.95;4.00;;;;;;;;;;1032170;28;100073;-72
2021/09/09 15:05:13;;;;;;;6.15;4.80;;;;;;;;;;1034187;27;101793;-73
2021/09/09 15:05:45;;;;;;;6.60;4.57;;;;;;;;;;1047558;27;100014;-73
2021/09/09 15:06:15;;;;;;;10.57;4.90;;;;;;;;;;1051009;27;101331;-76
2021/09/09 15:06:46;;;;;;;10.68;4.70;;;;;;;;;;1052083;27;99939;-73
2021/09/09 15:07:17;;;;;;;9.77;5.70;;;;;;;;;;1050313;27;101611;-71
2021/09/09 15:07:49;;;;;;;12.40;5.25;;;;;;;;;;1049487;27;100098;-69
2021/09/09 15:08:20;;;;;;;13.43;5.53;;;;;;;;;;1049050;27;100162;-74
2021/09/09 15:08:51;;;;;;;7.50;5.03;;;;;;;;;;1052161;27;100002;-69
2021/09/09 15:09:21;;;;;;;8.73;5.35;;;;;;;;;;1047871;27;101244;-72
2021/09/09 15:09:52;;;;;;;8.45;5.13;;;;;;;;;;1051143;27;99872;-72
2021/09/09 15:10:23;;;;;;;8.52;5.32;;;;;;;;;;1061331;22;102723;-75
2021/09/09 15:10:54;;;;;;;7.18;4.78;;;;;;;;;;1036935;28;100002;-76
2021/09/09 15:11:25;;;;;;;8.18;5.05;;;;;;;;;;1032949;28;100512;-75
2021/09/09 15:11:56;;;;;;;7.40;5.35;;;;;;;;;;1025032;28;99900;-76
2021/09/09 15:12:26;;;;;;;9.95;5.10;;;;;;;;;;1018460;28;100708;-73
2021/09/09 15:12:57;;;;;;;7.45;5.28;;;;;;;;;;1020991;28;100688;-75
2021/09/09 15:13:30;;;;;;;7.43;5.15;;;;;;;;;;1024279;28;100223;-76
2021/09/09 15:14:02;;;;;;;9.27;5.65;;;;;;;;;;1025883;28;100240;-76
2021/09/09 15:14:33;;;;;;;8.75;5.20;;;;;;;;;;1023992;28;102986;-76
2021/09/09 15:15:06;;;;;;;6.63;4.97;;;;;;;;;;1023565;28;100497;-76
2021/09/09 15:15:37;;;;;;;7.82;4.85;;;;;;;;;;1023116;28;102995;-76
2021/09/09 15:16:08;;;;;;;9.57;5.45;;;;;;;;;;1025574;28;100082;-84
2021/09/09 15:16:38;;;;;;;8.65;5.05;;;;;;;;;;1026447;28;100246;-79
2021/09/09 15:17:10;;;;;;;7.75;4.70;;;;;;;;;;1029959;28;100001;-80
2021/09/09 15:17:41;;;;;;;8.63;5.13;;;;;;;;;;1028724;28;103058;-80
2021/09/09 15:18:12;;;;;;;8.50;5.00;;;;;;;;;;1025865;28;100077;-80
2021/09/09 15:18:42;;;;;;;7.20;5.15;;;;;;;;;;1025781;28;103259;-80
2021/09/09 15:19:13;;;;;;;9.32;5.25;;;;;;;;;;1023430;28;100141;-80
2021/09/09 15:19:44;;;;;;;12.32;5.32;;;;;;;;;;1025792;28;100166;-80
2021/09/09 15:20:16;;;;;;;9.82;4.63;;;;;;;;;;1023678;28;100835;-80
2021/09/09 15:20:47;;;;;;;10.35;4.75;;;;;;;;;;1026323;28;100244;-79
2021/09/09 15:21:18;;;;;;;10.60;5.38;;;;;;;;;;1022626;28;100009;-79
2021/09/09 15:21:49;;;;;;;11.73;4.60;;;;;;;;;;1023295;28;100426;-80
2021/09/09 15:22:20;;;;;;;10.07;5.20;;;;;;;;;;1021483;28;100023;-79
2021/09/09 15:22:50;;;;;;;9.77;5.32;;;;;;;;;;1020121;28;100133;-79
2021/09/09 15:23:21;;;;;;;9.52;5.35;;;;;;;;;;1020656;28;100537;-80
2021/09/09 15:23:52;;;;;;;10.90;5.90;;;;;;;;;;1022149;28;100371;-80
2021/09/09 15:24:23;;;;;;;9.35;5.28;;;;;;;;;;1027362;28;100021;-80
2021/09/09 15:24:54;;;;;;;8.07;5.07;;;;;;;;;;1020854;28;101413;-80
2021/09/09 15:25:25;;;;;;;9.80;5.28;;;;;;;;;;1017755;28;100874;-78
2021/09/09 15:25:55;;;;;;;10.43;5.28;;;;;;;;;;1018428;28;102949;-75
2021/09/09 15:26:26;;;;;;;7.75;4.82;;;;;;;;;;1023098;28;99918;-78
2021/09/09 15:26:57;;;;;;;6.55;5.10;;;;;;;;;;1021939;28;103595;-79
2021/09/09 15:27:28;;;;;;;5.90;4.90;;;;;;;;;;1026607;28;100106;-78
2021/09/09 15:27:59;;;;;;;7.25;4.93;;;;;;;;;;1024436;28;101376;-79
2021/09/09 15:28:29;;;;;;;8.27;5.25;;;;;;;;;;1026849;28;99974;-79
2021/09/09 15:29:00;;;;;;;8.20;5.25;;;;;;;;;;1027355;28;100200;-79
2021/09/09 15:29:31;;;;;;;6.13;4.63;;;;;;;;;;1028686;28;100051;-77
2021/09/09 15:30:04;;;;;;;6.57;4.60;;;;;;;;;;1028878;28;100343;-79
2021/09/09 15:30:35;;;;;;;8.15;4.88;;;;;;;;;;1026102;28;99579;-78
2021/09/09 15:31:06;;;;;;;8.55;4.75;;;;;;;;;;1025852;28;100347;-79
2021/09/09 15:31:37;;;;;;;10.02;5.50;;;;;;;;;;1027309;28;99953;-80
2021/09/09 15:32:08;;;;;;;11.68;4.78;;;;;;;;;;1025906;28;100162;-83
2021/09/09 15:32:39;;;;;;;9.23;4.88;;;;;;;;;;1030573;28;99979;-82
2021/09/09 15:33:10;;;;;;;9.45;4.80;;;;;;;;;;1033498;28;101664;-81
2021/09/09 15:33:42;;;;;;;7.60;4.72;;;;;;;;;;1035885;28;99970;-81
2021/09/09 15:34:14;;;;;;;7.40;4.78;;;;;;;;;;1030073;28;101474;-81
2021/09/09 15:34:44;;;;;;;8.20;4.90;;;;;;;;;;1030638;28;100014;-82
2021/09/09 15:35:16;;;;;;;6.03;4.55;;;;;;;;;;1028784;28;100200;-80
2021/09/09 15:35:49;;;;;;;9.90;5.18;;;;;;;;;;1031226;28;99841;-75
2021/09/09 15:36:31;;;;;;;6.10;4.97;;;;;;;;;;1032527;28;100220;-79
2021/09/09 15:37:02;;;;;;;7.13;4.95;;;;;;;;;;1030267;28;99957;-80
2021/09/09 15:37:33;;;;;;;6.57;4.50;;;;;;;;;;1024207;28;101647;-80
2021/09/09 15:38:04;;;;;;;6.03;4.00;;;;;;;;;;1027414;28;99988;-81
2021/09/09 15:38:35;;;;;;;6.78;4.25;;;;;;;;;;1025962;28;103199;-81
2021/09/09 15:39:07;;;;;;;8.63;5.10;;;;;;;;;;1030529;28;100095;-80
2021/09/09 15:39:38;;;;;;;8.90;5.13;;;;;;;;;;1028390;28;103509;-79
2021/09/09 15:40:10;;;;;;;9.52;4.97;;;;;;;;;;1026243;28;100106;-84
2021/09/09 15:40:41;;;;;;;7.93;4.75;;;;;;;;;;1025726;28;101526;-81
2021/09/09 15:41:11;;;;;;;7.38;5.35;;;;;;;;;;1027277;28;100194;-82
2021/09/09 15:41:42;;;;;;;10.88;5.10;;;;;;;;;;1029267;28;100433;-83
2021/09/09 15:42:13;;;;;;;7.15;4.75;;;;;;;;;;1034349;28;100109;-83
2021/09/09 15:42:44;;;;;;;8.70;4.78;;;;;;;;;;1034449;28;100184;-85
2021/09/09 15:43:15;;;;;;;8.43;4.93;;;;;;;;;;1027537;28;100106;-82
2021/09/09 15:43:46;;;;;;;7.15;4.70;;;;;;;;;;1027227;28;101836;-82
2021/09/09 15:44:17;;;;;;;9.70;4.88;;;;;;;;;;1028317;28;99953;-81
2021/09/09 15:44:49;;;;;;;7.80;5.07;;;;;;;;;;1027475;28;101471;-83
2021/09/09 15:45:21;;;;;;;6.50;4.65;;;;;;;;;;1035427;28;99768;-83
2021/09/09 15:45:52;;;;;;;7.78;4.25;;;;;;;;;;1034416;28;101379;-79
2021/09/09 15:46:23;;;;;;;8.50;4.50;;;;;;;;;;1031914;28;100089;-83
2021/09/09 15:46:54;;;;;;;9.43;4.65;;;;;;;;;;1028697;28;102210;-83
2021/09/09 15:47:25;;;;;;;6.53;4.93;;;;;;;;;;1030953;28;100097;-82
2021/09/09 15:47:56;;;;;;;6.03;4.72;;;;;;;;;;1030065;28;100263;-84
2021/09/09 15:48:27;;;;;;;9.20;5.28;;;;;;;;;;1022531;28;99915;-83
2021/09/09 15:48:58;;;;;;;7.47;4.80;;;;;;;;;;1021861;28;101684;-82
2021/09/09 15:49:28;;;;;;;6.53;4.82;;;;;;;;;;1026641;28;100078;-83
2021/09/09 15:49:59;;;;;;;7.57;4.82;;;;;;;;;;1024453;28;100707;-83
2021/09/09 15:50:31;;;;;;;9.40;5.15;;;;;;;;;;1033228;28;99803;-81
2021/09/09 15:51:02;;;;;;;8.60;4.90;;;;;;;;;;1031862;28;101245;-81
2021/09/09 15:51:33;;;;;;;10.10;4.82;;;;;;;;;;1028995;28;99940;-82
2021/09/09 15:52:05;;;;;;;8.43;4.80;;;;;;;;;;1023790;28;100311;-82
2021/09/09 15:52:36;;;;;;;7.60;4.35;;;;;;;;;;1025002;28;99733;-81
2021/09/09 15:53:07;;;;;;;7.53;4.80;;;;;;;;;;1020118;28;101226;-86
2021/09/09 15:53:38;;;;;;;7.60;4.70;;;;;;;;;;1025433;28;99788;-82
2021/09/09 15:54:09;;;;;;;7.57;4.90;;;;;;;;;;1022617;28;101682;-84
2021/09/09 15:54:39;;;;;;;6.65;4.18;;;;;;;;;;1016871;28;99711;-82
2021/09/09 15:55:11;;;;;;;6.22;4.55;;;;;;;;;;1015503;28;103141;-80
2021/09/09 15:55:43;;;;;;;6.63;4.60;;;;;;;;;;1016971;28;100092;-79
2021/09/09 15:56:14;;;;;;;5.60;4.57;;;;;;;;;;1015764;28;103784;-79
2021/09/09 15:56:45;;;;;;;6.93;4.43;;;;;;;;;;1021273;28;99843;-81
2021/09/09 15:57:16;;;;;;;5.88;4.30;;;;;;;;;;1023755;28;100172;-82
2021/09/09 15:57:46;;;;;;;6.68;4.40;;;;;;;;;;1021218;28;99910;-83
2021/09/09 15:58:17;;;;;;;6.38;4.43;;;;;;;;;;1023610;28;101748;-80
2021/09/09 15:58:48;;;;;;;8.55;4.53;;;;;;;;;;1025005;28;99873;-80
2021/09/09 15:59:19;;;;;;;6.20;4.38;;;;;;;;;;1015586;28;103055;-83
2021/09/09 15:59:49;;;;;;;5.97;4.30;;;;;;;;;;1021005;28;99745;-82
2021/09/09 16:00:20;;;;;;;6.45;4.55;;;;;;;;;;1019885;28;100126;-81
2021/09/09 16:00:51;;;;;;;7.53;4.43;;;;;;;;;;1021103;28;99881;-83
2021/09/09 16:01:23;;;;;;;7.90;4.90;;;;;;;;;;1028071;28;100154;-80
2021/09/09 16:01:54;;;;;;;8.73;4.68;;;;;;;;;;1028825;28;99797;-80
2021/09/09 16:02:25;;;;;;;11.73;5.63;;;;;;;;;;1023451;28;102278;-80
2021/09/09 16:02:55;;;;;;;6.55;4.50;;;;;;;;;;1025002;28;100099;-80
2021/09/09 16:03:26;;;;;;;7.07;4.63;;;;;;;;;;1019567;28;100375;-78
2021/09/09 16:03:58;;;;;;;8.52;4.85;;;;;;;;;;1021247;28;100089;-80
2021/09/09 16:04:29;;;;;;;8.55;4.95;;;;;;;;;;1023491;28;100131;-74
2021/09/09 16:05:01;;;;;;;5.72;4.53;;;;;;;;;;1026770;28;99785;-77
2021/09/09 16:05:32;;;;;;;7.45;4.75;;;;;;;;;;1024708;28;100158;-77
2021/09/09 16:06:03;;;;;;;5.88;4.50;;;;;;;;;;1023342;28;99918;-76
2021/09/09 16:06:33;;;;;;;6.47;4.60;;;;;;;;;;1022206;28;100823;-76
2021/09/09 16:07:04;;;;;;;5.80;4.97;;;;;;;;;;1027227;28;99915;-74
2021/09/09 16:07:35;;;;;;;5.60;4.40;;;;;;;;;;1030102;28;100686;-75
2021/09/09 16:08:06;;;;;;;8.50;4.60;;;;;;;;;;1034868;28;99956;-75
2021/09/09 16:08:37;;;;;;;7.32;4.68;;;;;;;;;;1033105;28;100804;-79
2021/09/09 16:09:08;;;;;;;6.40;4.97;;;;;;;;;;1026489;28;100010;-77
2021/09/09 16:09:40;;;;;;;6.85;5.05;;;;;;;;;;1022068;28;100732;-78
2021/09/09 16:10:12;;;;;;;9.02;4.88;;;;;;;;;;1016478;28;100073;-75
2021/09/09 16:10:42;;;;;;;11.30;5.03;;;;;;;;;;1015993;28;100362;-76
2021/09/09 16:11:13;;;;;;;8.95;5.60;;;;;;;;;;1020862;28;99934;-78
2021/09/09 16:11:48;;;;;;;9.98;5.43;;;;;;;;;;1023653;28;100221;-74
2021/09/09 16:12:18;;;;;;;8.77;5.03;;;;;;;;;;1026818;28;100126;-74
2021/09/09 16:12:49;;;;;;;6.80;5.15;;;;;;;;;;1026374;28;100201;-76
2021/09/09 16:13:20;;;;;;;7.97;5.13;;;;;;;;;;1029733;28;100154;-77
2021/09/09 16:13:51;;;;;;;8.73;4.85;;;;;;;;;;1021166;28;100400;-74
2021/09/09 16:14:22;;;;;;;7.57;5.20;;;;;;;;;;1023328;28;99895;-76
2021/09/09 16:14:53;;;;;;;7.45;5.15;;;;;;;;;;1021257;28;101370;-75
2021/09/09 16:15:24;;;;;;;7.72;5.03;;;;;;;;;;1023515;28;99994;-75
2021/09/09 16:15:55;;;;;;;7.35;5.05;;;;;;;;;;1025849;28;100169;-75
2021/09/09 16:16:26;;;;;;;7.05;4.43;;;;;;;;;;1024557;28;99894;-77
2021/09/09 16:16:57;;;;;;;11.02;5.25;;;;;;;;;;1028773;28;100147;-74
2021/09/09 16:17:28;;;;;;;9.30;5.47;;;;;;;;;;1027327;28;99773;-74
2021/09/09 16:18:04;;;;;;;9.13;4.97;;;;;;;;;;1028580;28;100114;-74
2021/09/09 16:18:35;;;;;;;6.32;4.88;;;;;;;;;;1030390;28;100164;-74
2021/09/09 16:19:06;;;;;;;11.63;4.95;;;;;;;;;;1030042;28;100793;-75
2021/09/09 16:19:37;;;;;;;8.13;4.82;;;;;;;;;;1031247;28;100036;-75
2021/09/09 16:20:08;;;;;;;7.68;5.00;;;;;;;;;;1026277;28;101675;-74
2021/09/09 16:20:40;;;;;;;6.10;4.80;;;;;;;;;;1034498;28;99871;-75
2021/09/09 16:21:11;;;;;;;12.13;5.07;;;;;;;;;;1034237;28;100900;-75
2021/09/09 16:21:42;;;;;;;8.60;4.95;;;;;;;;;;1035778;28;99985;-75
2021/09/09 16:22:13;;;;;;;9.27;6.22;;;;;;;;;;1029084;28;102822;-75
2021/09/09 16:22:44;;;;;;;10.02;4.97;;;;;;;;;;1021296;28;99938;-78
2021/09/09 16:23:15;;;;;;;7.75;5.18;;;;;;;;;;1021166;28;99951;-79
2021/09/09 16:23:45;;;;;;;7.57;4.85;;;;;;;;;;1023518;28;100014;-75
2021/09/09 16:24:16;;;;;;;9.18;5.15;;;;;;;;;;1025892;28;101417;-75
2021/09/09 16:24:47;;;;;;;7.15;4.97;;;;;;;;;;1034340;28;100032;-73
2021/09/09 16:25:18;;;;;;;7.85;4.97;;;;;;;;;;1028262;28;103176;-79
2021/09/09 16:25:49;;;;;;;9.65;5.13;;;;;;;;;;1026932;28;99889;-73
2021/09/09 16:26:20;;;;;;;7.00;5.15;;;;;;;;;;1026106;28;100695;-76
2021/09/09 16:26:51;;;;;;;7.65;5.20;;;;;;;;;;1026313;28;100703;-76
2021/09/09 16:27:23;;;;;;;8.63;5.22;;;;;;;;;;1025226;28;100227;-74
2021/09/09 16:27:54;;;;;;;9.25;5.63;;;;;;;;;;1026031;28;100169;-74
2021/09/09 16:28:25;;;;;;;7.40;4.97;;;;;;;;;;1025600;28;100197;-75
2021/09/09 16:28:56;;;;;;;6.85;4.72;;;;;;;;;;1026552;28;100162;-72
2021/09/09 16:29:27;;;;;;;8.00;5.50;;;;;;;;;;1024864;28;100177;-75
2021/09/09 16:29:57;;;;;;;8.07;5.25;;;;;;;;;;1029974;28;100033;-73
2021/09/09 16:30:31;;;;;;;9.73;5.43;;;;;;;;;;1024544;28;101931;-75
2021/09/09 16:31:02;;;;;;;9.88;5.40;;;;;;;;;;1029955;28;100175;-76
2021/09/09 16:31:33;;;;;;;10.50;5.30;;;;;;;;;;1025131;28;102795;-76
2021/09/09 16:32:05;;;;;;;8.70;4.65;;;;;;;;;;1021307;28;99868;-75
2021/09/09 16:32:35;;;;;;;10.18;5.32;;;;;;;;;;1023098;28;101539;-76
2021/09/09 16:33:06;;;;;;;9.82;5.68;;;;;;;;;;1020385;28;99950;-76
2021/09/09 16:33:37;;;;;;;7.05;5.22;;;;;;;;;;1023848;28;100205;-75
2021/09/09 16:34:08;;;;;;;14.57;5.43;;;;;;;;;;1029011;28;99813;-76
2021/09/09 16:34:39;;;;;;;10.57;5.15;;;;;;;;;;1027546;28;101296;-75
2021/09/09 16:35:11;;;;;;;9.00;5.68;;;;;;;;;;1032625;28;100013;-79
2021/09/09 16:35:42;;;;;;;8.32;5.10;;;;;;;;;;1031763;28;100814;-75
2021/09/09 16:36:13;;;;;;;6.55;5.10;;;;;;;;;;1032712;28;99921;-75
2021/09/09 16:36:44;;;;;;;8.98;5.47;;;;;;;;;;1031562;28;101926;-76
2021/09/09 16:37:15;;;;;;;8.88;5.45;;;;;;;;;;1032755;28;100029;-76
2021/09/09 16:37:46;;;;;;;7.47;5.13;;;;;;;;;;1022921;28;103233;-77
2021/09/09 16:38:17;;;;;;;7.15;5.30;;;;;;;;;;1024526;28;100033;-75
2021/09/09 16:38:50;;;;;;;8.00;5.13;;;;;;;;;;1023571;28;100384;-77
2021/09/09 16:39:21;;;;;;;10.00;5.07;;;;;;;;;;1021434;28;100075;-77
2021/09/09 16:39:52;;;;;;;7.53;5.63;;;;;;;;;;1027672;28;100720;-77
2021/09/09 16:40:24;;;;;;;9.35;5.28;;;;;;;;;;1028767;28;100139;-78
2021/09/09 16:40:54;;;;;;;6.57;5.28;;;;;;;;;;1027789;28;100378;-78
2021/09/09 16:41:25;;;;;;;9.85;5.78;;;;;;;;;;1033213;28;100074;-77
2021/09/09 16:41:57;;;;;;;7.65;5.20;;;;;;;;;;1031837;28;100414;-75
2021/09/09 16:42:27;;;;;;;7.88;5.35;;;;;;;;;;1033334;28;99865;-78
2021/09/09 16:42:58;;;;;;;9.68;4.97;;;;;;;;;;1031045;28;100343;-76
2021/09/09 16:43:29;;;;;;;7.57;5.05;;;;;;;;;;1032978;28;100047;-77
2021/09/09 16:44:00;;;;;;;9.77;5.43;;;;;;;;;;1031792;28;99958;-77
2021/09/09 16:44:31;;;;;;;7.63;5.00;;;;;;;;;;1033258;28;100214;-76
2021/09/09 16:45:02;;;;;;;7.22;5.30;;;;;;;;;;1027636;28;100308;-76
2021/09/09 16:45:33;;;;;;;8.38;5.25;;;;;;;;;;1028473;28;100141;-77
2021/09/09 16:46:04;;;;;;;10.55;5.07;;;;;;;;;;1023596;28;100265;-77
2021/09/09 16:46:35;;;;;;;6.72;4.97;;;;;;;;;;1021079;28;100036;-76
2021/09/09 16:47:06;;;;;;;8.45;5.40;;;;;;;;;;1023578;28;101368;-77
2021/09/09 16:47:37;;;;;;;7.28;5.10;;;;;;;;;;1020814;28;99777;-76
2021/09/09 16:48:07;;;;;;;7.30;5.18;;;;;;;;;;1019646;28;103537;-77
2021/09/09 16:48:41;;;;;;;8.52;5.47;;;;;;;;;;1024623;28;99766;-79
2021/09/09 16:49:12;;;;;;;7.20;4.72;;;;;;;;;;1024020;28;101483;-76
2021/09/09 16:49:43;;;;;;;8.82;5.22;;;;;;;;;;1029306;28;99775;-76
2021/09/09 16:50:13;;;;;;;7.30;5.28;;;;;;;;;;1027663;28;101387;-74
2021/09/09 16:50:44;;;;;;;7.32;5.05;;;;;;;;;;1024814;28;99900;-77
2021/09/09 16:51:15;;;;;;;7.80;5.63;;;;;;;;;;1023757;28;100185;-76
2021/09/09 16:51:46;;;;;;;7.07;5.63;;;;;;;;;;1012876;28;99838;-78
2021/09/09 16:52:17;;;;;;;8.50;5.50;;;;;;;;;;1016051;28;100681;-78
2021/09/09 16:52:48;;;;;;;7.38;4.82;;;;;;;;;;1016682;28;99757;-77
2021/09/09 16:53:19;;;;;;;6.55;5.32;;;;;;;;;;1016321;28;100696;-77
2021/09/09 16:53:50;;;;;;;8.32;5.38;;;;;;;;;;1028528;28;99811;-77
2021/09/09 16:54:20;;;;;;;5.38;4.88;;;;;;;;;;1023681;28;100175;-77
2021/09/09 16:54:52;;;;;;;7.82;5.50;;;;;;;;;;1025029;28;100217;-77
2021/09/09 16:55:25;;;;;;;7.22;5.28;;;;;;;;;;1019548;28;100377;-78
2021/09/09 16:55:56;;;;;;;6.30;4.82;;;;;;;;;;1021356;28;99929;-77
2021/09/09 16:56:27;;;;;;;7.32;5.05;;;;;;;;;;1020346;28;100274;-75
2021/09/09 16:57:01;;;;;;;7.45;5.20;;;;;;;;;;1024840;28;99804;-75
2021/09/09 16:57:33;;;;;;;6.68;5.25;;;;;;;;;;1023458;28;100284;-77
2021/09/09 16:58:05;;;;;;;9.00;5.10;;;;;;;;;;1022507;28;99940;-76
2021/09/09 16:58:36;;;;;;;8.60;5.45;;;;;;;;;;1027561;28;99929;-77
2021/09/09 16:59:13;;;;;;;7.30;5.50;;;;;;;;;;1028533;28;99866;-76
2021/09/09 16:59:46;;;;;;;7.03;5.43;;;;;;;;;;1028817;28;101502;-77
2021/09/09 17:00:19;;;;;;;7.65;4.97;;;;;;;;;;1028900;28;99744;-76
2021/09/09 17:00:50;;;;;;;5.90;5.15;;;;;;;;;;1027715;28;100157;-75
2021/09/09 17:01:26;;;;;;;5.80;5.20;;;;;;;;;;1024769;28;99966;-76
2021/09/09 17:01:58;;;;;;;6.47;4.82;;;;;;;;;;1020429;28;103235;-75
2021/09/09 17:02:30;;;;;;;6.45;4.78;;;;;;;;;;1020930;28;99766;-76
2021/09/09 17:03:01;;;;;;;6.32;4.88;;;;;;;;;;1016451;28;100949;-76
2021/09/09 17:03:32;;;;;;;7.18;5.30;;;;;;;;;;1021189;28;99276;-75
2021/09/09 17:04:03;;;;;;;8.40;5.75;;;;;;;;;;1023611;28;101712;-80
2021/09/09 17:04:34;;;;;;;10.05;5.80;;;;;;;;;;1024502;28;99764;-75
2021/09/09 17:05:05;;;;;;;7.60;5.30;;;;;;;;;;1027432;28;100133;-76
2021/09/09 17:05:36;;;;;;;7.60;5.45;;;;;;;;;;1024386;28;99907;-76
2021/09/09 17:06:07;;;;;;;7.95;5.25;;;;;;;;;;1019192;28;103184;-75
2021/09/09 17:06:38;;;;;;;6.82;5.05;;;;;;;;;;1020471;28;99723;-78
2021/09/09 17:07:09;;;;;;;7.10;5.63;;;;;;;;;;1019730;28;103040;-77
2021/09/09 17:07:40;;;;;;;5.93;5.13;;;;;;;;;;1020658;28;99821;-76
2021/09/09 17:08:11;;;;;;;7.10;5.40;;;;;;;;;;1023261;28;101447;-77
2021/09/09 17:08:42;;;;;;;6.05;4.95;;;;;;;;;;1020791;28;99762;-75
2021/09/09 17:09:13;;;;;;;7.82;5.88;;;;;;;;;;1019763;28;103605;-75
2021/09/09 17:09:44;;;;;;;6.97;5.80;;;;;;;;;;1028626;28;99910;-76